sensor_id;sensor_type;location;lat;lon;timestamp;temperature;humidity
39493;DHT22;25176;51.060;3.720;2024-02-14T00:00:24;10.80;99.90
39493;DHT22;25176;51.060;3.720;2024-02-14T00:02:50;10.80;99.90
39493;DHT22;25176;51.060;3.720;2024-02-14T00:05:15;10.80;99.90
39493;DHT22;25176;51.060;3.720;2024-02-14T00:07:41;10.80;99.90
39493;DHT22;25176;51.060;3.720;2024-02-14T00:10:07;10.90;99.90
39493;DHT22;25176;51.060;3.720;2024-02-14T00:12:33;10.80;99.90
39493;DHT22;25176;51.060;3.720;2024-02-14T00:14:58;10.90;99.90
39493;DHT22;25176;51.060;3.720;2024-02-14T00:17:24;10.80;99.90
39493;DHT22;25176;51.060;3.720;2024-02-14T00:19:50;10.90;99.90
39493;DHT22;25176;51.060;3.720;2024-02-14T00:22:16;10.90;99.90
39493;DHT22;25176;51.060;3.720;2024-02-14T00:24:41;10.80;99.90
39493;DHT22;25176;51.060;3.720;2024-02-14T00:27:07;10.90;99.90
39493;DHT22;25176;51.060;3.720;2024-02-14T00:29:32;10.90;99.90
39493;DHT22;25176;51.060;3.720;2024-02-14T00:32:00;10.80;99.90
39493;DHT22;25176;51.060;3.720;2024-02-14T00:34:25;10.80;99.90
39493;DHT22;25176;51.060;3.720;2024-02-14T00:36:51;10.90;99.90
39493;DHT22;25176;51.060;3.720;2024-02-14T00:39:16;10.80;99.90
39493;DHT22;25176;51.060;3.720;2024-02-14T00:41:42;10.90;99.90
39493;DHT22;25176;51.060;3.720;2024-02-14T00:44:07;11.00;99.90
39493;DHT22;25176;51.060;3.720;2024-02-14T00:46:33;10.90;99.90
39493;DHT22;25176;51.060;3.720;2024-02-14T00:48:58;10.90;99.90
39493;DHT22;25176;51.060;3.720;2024-02-14T00:51:24;10.90;99.90
39493;DHT22;25176;51.060;3.720;2024-02-14T00:53:51;10.90;99.90
39493;DHT22;25176;51.060;3.720;2024-02-14T00:56:17;10.90;99.90
39493;DHT22;25176;51.060;3.720;2024-02-14T00:58:43;10.90;99.90
39493;DHT22;25176;51.060;3.720;2024-02-14T01:01:09;10.90;99.90
39493;DHT22;25176;51.060;3.720;2024-02-14T01:03:34;10.90;99.90
39493;DHT22;25176;51.060;3.720;2024-02-14T01:06:00;11.00;99.90
39493;DHT22;25176;51.060;3.720;2024-02-14T01:08:25;11.10;99.90
39493;DHT22;25176;51.060;3.720;2024-02-14T01:10:51;11.10;99.90
39493;DHT22;25176;51.060;3.720;2024-02-14T01:13:17;11.10;99.90
39493;DHT22;25176;51.060;3.720;2024-02-14T01:15:42;11.20;99.90
39493;DHT22;25176;51.060;3.720;2024-02-14T01:18:08;11.20;99.90
39493;DHT22;25176;51.060;3.720;2024-02-14T01:20:33;11.10;99.90
39493;DHT22;25176;51.060;3.720;2024-02-14T01:22:59;11.10;99.90
39493;DHT22;25176;51.060;3.720;2024-02-14T01:25:25;11.10;99.90
39493;DHT22;25176;51.060;3.720;2024-02-14T01:27:51;11.10;99.90
39493;DHT22;25176;51.060;3.720;2024-02-14T01:30:18;11.10;99.90
39493;DHT22;25176;51.060;3.720;2024-02-14T01:32:43;11.10;99.90
39493;DHT22;25176;51.060;3.720;2024-02-14T01:35:09;11.00;99.90
39493;DHT22;25176;51.060;3.720;2024-02-14T01:37:35;11.00;99.90
39493;DHT22;25176;51.060;3.720;2024-02-14T01:40:00;11.00;99.90
39493;DHT22;25176;51.060;3.720;2024-02-14T01:42:26;11.00;99.90
39493;DHT22;25176;51.060;3.720;2024-02-14T01:44:53;11.00;99.90
39493;DHT22;25176;51.060;3.720;2024-02-14T01:47:20;11.00;99.90
39493;DHT22;25176;51.060;3.720;2024-02-14T01:49:46;11.00;99.90
39493;DHT22;25176;51.060;3.720;2024-02-14T01:52:12;11.10;99.90
39493;DHT22;25176;51.060;3.720;2024-02-14T01:54:37;11.10;99.90
39493;DHT22;25176;51.060;3.720;2024-02-14T01:57:03;11.20;99.90
39493;DHT22;25176;51.060;3.720;2024-02-14T01:59:30;11.10;99.90
39493;DHT22;25176;51.060;3.720;2024-02-14T02:01:55;11.20;99.90
39493;DHT22;25176;51.060;3.720;2024-02-14T02:04:21;11.10;99.90
39493;DHT22;25176;51.060;3.720;2024-02-14T02:06:46;11.20;99.90
39493;DHT22;25176;51.060;3.720;2024-02-14T02:09:12;11.20;99.90
39493;DHT22;25176;51.060;3.720;2024-02-14T02:11:50;11.20;99.90
39493;DHT22;25176;51.060;3.720;2024-02-14T02:14:16;11.20;99.90
39493;DHT22;25176;51.060;3.720;2024-02-14T02:16:42;11.20;99.90
39493;DHT22;25176;51.060;3.720;2024-02-14T02:19:07;11.20;99.90
39493;DHT22;25176;51.060;3.720;2024-02-14T02:21:35;11.20;99.90
39493;DHT22;25176;51.060;3.720;2024-02-14T02:24:00;11.20;99.90
39493;DHT22;25176;51.060;3.720;2024-02-14T02:26:26;11.20;99.90
39493;DHT22;25176;51.060;3.720;2024-02-14T02:28:52;11.30;99.90
39493;DHT22;25176;51.060;3.720;2024-02-14T02:31:18;11.30;99.90
39493;DHT22;25176;51.060;3.720;2024-02-14T02:33:43;11.20;99.90
39493;DHT22;25176;51.060;3.720;2024-02-14T02:36:09;11.20;99.90
39493;DHT22;25176;51.060;3.720;2024-02-14T02:38:35;11.20;99.90
39493;DHT22;25176;51.060;3.720;2024-02-14T02:41:02;11.20;99.90
39493;DHT22;25176;51.060;3.720;2024-02-14T02:43:28;11.10;99.90
39493;DHT22;25176;51.060;3.720;2024-02-14T02:45:54;11.20;99.90
39493;DHT22;25176;51.060;3.720;2024-02-14T02:48:19;11.10;99.90
39493;DHT22;25176;51.060;3.720;2024-02-14T02:50:48;11.10;99.90
39493;DHT22;25176;51.060;3.720;2024-02-14T02:53:15;11.10;99.90
39493;DHT22;25176;51.060;3.720;2024-02-14T02:55:40;11.20;99.90
39493;DHT22;25176;51.060;3.720;2024-02-14T02:58:06;11.20;99.90
39493;DHT22;25176;51.060;3.720;2024-02-14T03:00:32;11.20;99.90
39493;DHT22;25176;51.060;3.720;2024-02-14T03:02:58;11.10;99.90
39493;DHT22;25176;51.060;3.720;2024-02-14T03:05:23;11.20;99.90
39493;DHT22;25176;51.060;3.720;2024-02-14T03:07:49;11.10;99.90
39493;DHT22;25176;51.060;3.720;2024-02-14T03:10:16;11.20;99.90
39493;DHT22;25176;51.060;3.720;2024-02-14T03:12:49;11.20;99.90
39493;DHT22;25176;51.060;3.720;2024-02-14T03:15:14;11.20;99.90
39493;DHT22;25176;51.060;3.720;2024-02-14T03:17:40;11.30;99.90
39493;DHT22;25176;51.060;3.720;2024-02-14T03:20:05;11.20;99.90
39493;DHT22;25176;51.060;3.720;2024-02-14T03:22:43;11.20;99.90
39493;DHT22;25176;51.060;3.720;2024-02-14T03:25:18;11.20;99.90
39493;DHT22;25176;51.060;3.720;2024-02-14T03:27:44;11.30;99.90
39493;DHT22;25176;51.060;3.720;2024-02-14T03:30:14;11.20;99.90
39493;DHT22;25176;51.060;3.720;2024-02-14T03:32:41;11.30;99.90
39493;DHT22;25176;51.060;3.720;2024-02-14T03:35:07;11.20;99.90
39493;DHT22;25176;51.060;3.720;2024-02-14T03:37:33;11.30;99.90
39493;DHT22;25176;51.060;3.720;2024-02-14T03:39:58;11.30;99.90
39493;DHT22;25176;51.060;3.720;2024-02-14T03:42:24;11.30;99.90
39493;DHT22;25176;51.060;3.720;2024-02-14T03:44:51;11.40;99.90
39493;DHT22;25176;51.060;3.720;2024-02-14T03:47:17;11.30;99.90
39493;DHT22;25176;51.060;3.720;2024-02-14T03:49:42;11.30;99.90
39493;DHT22;25176;51.060;3.720;2024-02-14T03:52:08;11.30;99.90
39493;DHT22;25176;51.060;3.720;2024-02-14T03:54:36;11.30;99.90
39493;DHT22;25176;51.060;3.720;2024-02-14T03:57:02;11.40;99.90
39493;DHT22;25176;51.060;3.720;2024-02-14T03:59:28;11.40;99.90
39493;DHT22;25176;51.060;3.720;2024-02-14T04:01:53;11.30;99.90
39493;DHT22;25176;51.060;3.720;2024-02-14T04:04:19;11.30;99.90
39493;DHT22;25176;51.060;3.720;2024-02-14T04:06:44;11.30;99.90
39493;DHT22;25176;51.060;3.720;2024-02-14T04:09:11;11.40;99.90
39493;DHT22;25176;51.060;3.720;2024-02-14T04:11:36;11.30;99.90
39493;DHT22;25176;51.060;3.720;2024-02-14T04:14:02;11.40;99.90
39493;DHT22;25176;51.060;3.720;2024-02-14T04:16:27;11.40;99.90
39493;DHT22;25176;51.060;3.720;2024-02-14T04:18:53;11.40;99.90
39493;DHT22;25176;51.060;3.720;2024-02-14T04:21:20;11.40;99.90
39493;DHT22;25176;51.060;3.720;2024-02-14T04:23:45;11.40;99.90
39493;DHT22;25176;51.060;3.720;2024-02-14T04:26:18;11.40;99.90
39493;DHT22;25176;51.060;3.720;2024-02-14T04:28:43;11.40;99.90
39493;DHT22;25176;51.060;3.720;2024-02-14T04:31:09;11.40;99.90
39493;DHT22;25176;51.060;3.720;2024-02-14T04:33:35;11.40;99.90
39493;DHT22;25176;51.060;3.720;2024-02-14T04:36:00;11.40;99.90
39493;DHT22;25176;51.060;3.720;2024-02-14T04:38:26;11.40;99.90
39493;DHT22;25176;51.060;3.720;2024-02-14T04:40:53;11.40;99.90
39493;DHT22;25176;51.060;3.720;2024-02-14T04:43:20;11.50;99.90
39493;DHT22;25176;51.060;3.720;2024-02-14T04:45:46;11.50;99.90
39493;DHT22;25176;51.060;3.720;2024-02-14T04:48:13;11.50;99.90
39493;DHT22;25176;51.060;3.720;2024-02-14T04:50:38;11.50;99.90
39493;DHT22;25176;51.060;3.720;2024-02-14T04:53:04;11.50;99.90
39493;DHT22;25176;51.060;3.720;2024-02-14T04:55:29;11.50;99.90
39493;DHT22;25176;51.060;3.720;2024-02-14T04:57:55;11.50;99.90
39493;DHT22;25176;51.060;3.720;2024-02-14T05:00:20;11.60;99.90
39493;DHT22;25176;51.060;3.720;2024-02-14T05:02:46;11.50;99.90
39493;DHT22;25176;51.060;3.720;2024-02-14T05:05:11;11.50;99.90
39493;DHT22;25176;51.060;3.720;2024-02-14T05:07:37;11.50;99.90
39493;DHT22;25176;51.060;3.720;2024-02-14T05:10:03;11.60;99.90
39493;DHT22;25176;51.060;3.720;2024-02-14T05:12:28;11.70;99.90
39493;DHT22;25176;51.060;3.720;2024-02-14T05:14:54;11.70;99.90
39493;DHT22;25176;51.060;3.720;2024-02-14T05:17:19;11.80;99.90
39493;DHT22;25176;51.060;3.720;2024-02-14T05:19:44;11.80;99.90
39493;DHT22;25176;51.060;3.720;2024-02-14T05:22:10;11.70;99.90
39493;DHT22;25176;51.060;3.720;2024-02-14T05:24:35;11.60;99.90
39493;DHT22;25176;51.060;3.720;2024-02-14T05:27:03;11.60;99.90
39493;DHT22;25176;51.060;3.720;2024-02-14T05:29:29;11.60;99.90
39493;DHT22;25176;51.060;3.720;2024-02-14T05:31:54;11.60;99.90
39493;DHT22;25176;51.060;3.720;2024-02-14T05:34:21;11.60;99.90
39493;DHT22;25176;51.060;3.720;2024-02-14T05:36:46;11.70;99.90
39493;DHT22;25176;51.060;3.720;2024-02-14T05:39:12;11.70;99.90
39493;DHT22;25176;51.060;3.720;2024-02-14T05:41:39;11.80;99.90
39493;DHT22;25176;51.060;3.720;2024-02-14T05:44:05;11.70;99.90
39493;DHT22;25176;51.060;3.720;2024-02-14T05:46:30;11.70;99.90
39493;DHT22;25176;51.060;3.720;2024-02-14T05:48:56;11.80;99.90
39493;DHT22;25176;51.060;3.720;2024-02-14T05:51:23;11.80;99.90
39493;DHT22;25176;51.060;3.720;2024-02-14T05:53:48;11.90;99.90
39493;DHT22;25176;51.060;3.720;2024-02-14T05:56:14;11.80;99.90
39493;DHT22;25176;51.060;3.720;2024-02-14T05:58:39;11.80;99.90
39493;DHT22;25176;51.060;3.720;2024-02-14T06:01:05;11.80;99.90
39493;DHT22;25176;51.060;3.720;2024-02-14T06:03:31;11.90;99.90
39493;DHT22;25176;51.060;3.720;2024-02-14T06:05:57;11.80;99.90
39493;DHT22;25176;51.060;3.720;2024-02-14T06:08:22;11.90;99.90
39493;DHT22;25176;51.060;3.720;2024-02-14T06:10:49;11.80;99.90
39493;DHT22;25176;51.060;3.720;2024-02-14T06:13:14;11.80;99.90
39493;DHT22;25176;51.060;3.720;2024-02-14T06:15:40;11.80;99.90
39493;DHT22;25176;51.060;3.720;2024-02-14T06:18:06;11.80;99.90
39493;DHT22;25176;51.060;3.720;2024-02-14T06:20:31;11.80;99.90
39493;DHT22;25176;51.060;3.720;2024-02-14T06:22:57;11.80;99.90
39493;DHT22;25176;51.060;3.720;2024-02-14T06:25:23;11.70;99.90
39493;DHT22;25176;51.060;3.720;2024-02-14T06:27:48;11.70;99.90
39493;DHT22;25176;51.060;3.720;2024-02-14T06:30:14;11.70;99.90
39493;DHT22;25176;51.060;3.720;2024-02-14T06:32:39;11.80;99.90
39493;DHT22;25176;51.060;3.720;2024-02-14T06:35:05;11.80;99.90
39493;DHT22;25176;51.060;3.720;2024-02-14T06:37:30;11.80;99.90
39493;DHT22;25176;51.060;3.720;2024-02-14T06:39:56;11.80;99.90
39493;DHT22;25176;51.060;3.720;2024-02-14T06:42:22;11.70;99.90
39493;DHT22;25176;51.060;3.720;2024-02-14T06:44:47;11.80;99.90
39493;DHT22;25176;51.060;3.720;2024-02-14T06:47:15;11.80;99.90
39493;DHT22;25176;51.060;3.720;2024-02-14T06:49:40;11.70;99.90
39493;DHT22;25176;51.060;3.720;2024-02-14T06:52:05;11.80;99.90
39493;DHT22;25176;51.060;3.720;2024-02-14T06:54:31;11.90;99.90
39493;DHT22;25176;51.060;3.720;2024-02-14T06:56:56;11.80;99.90
39493;DHT22;25176;51.060;3.720;2024-02-14T06:59:22;11.80;99.90
39493;DHT22;25176;51.060;3.720;2024-02-14T07:01:48;11.80;99.90
39493;DHT22;25176;51.060;3.720;2024-02-14T07:04:13;11.90;99.90
39493;DHT22;25176;51.060;3.720;2024-02-14T07:06:39;11.80;99.90
39493;DHT22;25176;51.060;3.720;2024-02-14T07:09:04;11.90;99.90
39493;DHT22;25176;51.060;3.720;2024-02-14T07:11:30;11.80;99.90
39493;DHT22;25176;51.060;3.720;2024-02-14T07:13:55;11.80;99.90
39493;DHT22;25176;51.060;3.720;2024-02-14T07:16:21;11.80;99.90
39493;DHT22;25176;51.060;3.720;2024-02-14T07:18:47;11.80;99.90
39493;DHT22;25176;51.060;3.720;2024-02-14T07:21:12;11.80;99.90
39493;DHT22;25176;51.060;3.720;2024-02-14T07:23:38;11.90;99.90
39493;DHT22;25176;51.060;3.720;2024-02-14T07:26:03;11.90;99.90
39493;DHT22;25176;51.060;3.720;2024-02-14T07:28:29;11.80;99.90
39493;DHT22;25176;51.060;3.720;2024-02-14T07:30:54;11.90;99.90
39493;DHT22;25176;51.060;3.720;2024-02-14T07:33:20;11.90;99.90
39493;DHT22;25176;51.060;3.720;2024-02-14T07:35:46;11.90;99.90
39493;DHT22;25176;51.060;3.720;2024-02-14T07:38:12;11.90;99.90
39493;DHT22;25176;51.060;3.720;2024-02-14T07:40:38;11.90;99.90
39493;DHT22;25176;51.060;3.720;2024-02-14T07:43:04;11.90;99.90
39493;DHT22;25176;51.060;3.720;2024-02-14T07:45:33;11.90;99.90
39493;DHT22;25176;51.060;3.720;2024-02-14T07:47:58;11.90;99.90
39493;DHT22;25176;51.060;3.720;2024-02-14T07:50:24;11.90;99.90
39493;DHT22;25176;51.060;3.720;2024-02-14T07:52:49;11.90;99.90
39493;DHT22;25176;51.060;3.720;2024-02-14T07:55:15;11.90;99.90
39493;DHT22;25176;51.060;3.720;2024-02-14T07:57:41;11.90;99.90
39493;DHT22;25176;51.060;3.720;2024-02-14T08:00:07;11.90;99.90
39493;DHT22;25176;51.060;3.720;2024-02-14T08:02:35;12.00;99.90
39493;DHT22;25176;51.060;3.720;2024-02-14T08:05:01;11.90;99.90
39493;DHT22;25176;51.060;3.720;2024-02-14T08:07:27;12.00;99.90
39493;DHT22;25176;51.060;3.720;2024-02-14T08:09:52;12.00;99.90
39493;DHT22;25176;51.060;3.720;2024-02-14T08:12:18;12.10;99.90
39493;DHT22;25176;51.060;3.720;2024-02-14T08:14:44;12.10;99.90
39493;DHT22;25176;51.060;3.720;2024-02-14T08:17:09;12.10;99.90
39493;DHT22;25176;51.060;3.720;2024-02-14T08:19:35;12.20;99.90
39493;DHT22;25176;51.060;3.720;2024-02-14T08:22:00;12.10;99.90
39493;DHT22;25176;51.060;3.720;2024-02-14T08:24:27;12.20;99.90
39493;DHT22;25176;51.060;3.720;2024-02-14T08:26:53;12.20;99.90
39493;DHT22;25176;51.060;3.720;2024-02-14T08:29:18;12.20;99.90
39493;DHT22;25176;51.060;3.720;2024-02-14T08:31:44;12.30;99.90
39493;DHT22;25176;51.060;3.720;2024-02-14T08:34:09;12.40;99.90
39493;DHT22;25176;51.060;3.720;2024-02-14T08:36:35;12.30;99.90
39493;DHT22;25176;51.060;3.720;2024-02-14T08:39:09;12.30;99.90
39493;DHT22;25176;51.060;3.720;2024-02-14T08:41:37;12.30;99.90
39493;DHT22;25176;51.060;3.720;2024-02-14T08:44:04;12.30;99.90
39493;DHT22;25176;51.060;3.720;2024-02-14T08:46:30;12.20;99.90
39493;DHT22;25176;51.060;3.720;2024-02-14T08:48:56;12.20;99.90
39493;DHT22;25176;51.060;3.720;2024-02-14T08:51:21;12.20;99.90
39493;DHT22;25176;51.060;3.720;2024-02-14T08:53:47;12.20;99.90
39493;DHT22;25176;51.060;3.720;2024-02-14T08:56:13;12.20;99.90
39493;DHT22;25176;51.060;3.720;2024-02-14T08:58:38;12.20;99.90
39493;DHT22;25176;51.060;3.720;2024-02-14T09:01:04;12.20;99.90
39493;DHT22;25176;51.060;3.720;2024-02-14T09:03:30;12.20;99.90
39493;DHT22;25176;51.060;3.720;2024-02-14T09:05:59;12.20;99.90
39493;DHT22;25176;51.060;3.720;2024-02-14T09:08:25;12.30;99.90
39493;DHT22;25176;51.060;3.720;2024-02-14T09:10:51;12.40;99.90
39493;DHT22;25176;51.060;3.720;2024-02-14T09:13:16;12.50;99.90
39493;DHT22;25176;51.060;3.720;2024-02-14T09:15:42;12.50;99.90
39493;DHT22;25176;51.060;3.720;2024-02-14T09:18:08;12.50;99.90
39493;DHT22;25176;51.060;3.720;2024-02-14T09:20:33;12.40;99.90
39493;DHT22;25176;51.060;3.720;2024-02-14T09:22:59;12.50;99.90
39493;DHT22;25176;51.060;3.720;2024-02-14T09:25:25;12.60;99.90
39493;DHT22;25176;51.060;3.720;2024-02-14T09:27:51;12.50;99.90
39493;DHT22;25176;51.060;3.720;2024-02-14T09:30:16;12.50;99.90
39493;DHT22;25176;51.060;3.720;2024-02-14T09:32:46;12.60;99.90
39493;DHT22;25176;51.060;3.720;2024-02-14T09:35:13;12.50;99.90
39493;DHT22;25176;51.060;3.720;2024-02-14T09:37:38;12.50;99.90
39493;DHT22;25176;51.060;3.720;2024-02-14T09:40:04;12.50;99.90
39493;DHT22;25176;51.060;3.720;2024-02-14T09:42:34;12.50;99.90
39493;DHT22;25176;51.060;3.720;2024-02-14T09:45:03;12.50;99.90
39493;DHT22;25176;51.060;3.720;2024-02-14T09:47:29;12.40;99.90
39493;DHT22;25176;51.060;3.720;2024-02-14T09:49:55;12.40;99.90
39493;DHT22;25176;51.060;3.720;2024-02-14T09:52:22;12.40;99.90
39493;DHT22;25176;51.060;3.720;2024-02-14T09:54:47;12.50;99.90
39493;DHT22;25176;51.060;3.720;2024-02-14T09:57:16;12.50;99.90
39493;DHT22;25176;51.060;3.720;2024-02-14T09:59:42;12.50;99.90
39493;DHT22;25176;51.060;3.720;2024-02-14T10:02:08;12.50;99.90
39493;DHT22;25176;51.060;3.720;2024-02-14T10:04:35;12.50;99.90
39493;DHT22;25176;51.060;3.720;2024-02-14T10:07:03;12.50;99.90
39493;DHT22;25176;51.060;3.720;2024-02-14T10:09:30;12.50;99.90
39493;DHT22;25176;51.060;3.720;2024-02-14T10:11:55;12.50;99.90
39493;DHT22;25176;51.060;3.720;2024-02-14T10:14:23;12.50;99.90
39493;DHT22;25176;51.060;3.720;2024-02-14T10:16:48;12.50;99.90
39493;DHT22;25176;51.060;3.720;2024-02-14T10:19:17;12.60;99.90
39493;DHT22;25176;51.060;3.720;2024-02-14T10:21:43;12.50;99.90
39493;DHT22;25176;51.060;3.720;2024-02-14T10:24:09;12.60;99.90
39493;DHT22;25176;51.060;3.720;2024-02-14T10:26:37;12.60;99.90
39493;DHT22;25176;51.060;3.720;2024-02-14T10:29:03;12.50;99.90
39493;DHT22;25176;51.060;3.720;2024-02-14T10:31:28;12.60;99.90
39493;DHT22;25176;51.060;3.720;2024-02-14T10:33:54;12.60;99.90
39493;DHT22;25176;51.060;3.720;2024-02-14T10:36:21;12.60;99.90
39493;DHT22;25176;51.060;3.720;2024-02-14T10:38:47;12.70;99.90
39493;DHT22;25176;51.060;3.720;2024-02-14T10:41:15;12.70;99.90
39493;DHT22;25176;51.060;3.720;2024-02-14T10:43:41;12.70;99.90
39493;DHT22;25176;51.060;3.720;2024-02-14T10:46:08;12.70;99.90
39493;DHT22;25176;51.060;3.720;2024-02-14T10:48:34;12.70;99.90
39493;DHT22;25176;51.060;3.720;2024-02-14T10:51:03;12.70;99.90
39493;DHT22;25176;51.060;3.720;2024-02-14T10:53:30;12.70;99.90
39493;DHT22;25176;51.060;3.720;2024-02-14T10:55:57;12.60;99.90
39493;DHT22;25176;51.060;3.720;2024-02-14T10:58:23;12.60;99.90
39493;DHT22;25176;51.060;3.720;2024-02-14T11:00:49;12.70;99.90
39493;DHT22;25176;51.060;3.720;2024-02-14T11:03:16;12.70;99.90
39493;DHT22;25176;51.060;3.720;2024-02-14T11:05:45;12.80;99.90
39493;DHT22;25176;51.060;3.720;2024-02-14T11:08:29;12.90;99.90
39493;DHT22;25176;51.060;3.720;2024-02-14T11:11:00;12.90;99.90
39493;DHT22;25176;51.060;3.720;2024-02-14T11:13:26;12.80;99.90
39493;DHT22;25176;51.060;3.720;2024-02-14T11:15:53;12.90;99.90
39493;DHT22;25176;51.060;3.720;2024-02-14T11:18:27;12.80;99.90
39493;DHT22;25176;51.060;3.720;2024-02-14T11:20:52;12.80;99.90
39493;DHT22;25176;51.060;3.720;2024-02-14T11:23:21;12.90;99.90
39493;DHT22;25176;51.060;3.720;2024-02-14T11:25:47;12.90;99.90
39493;DHT22;25176;51.060;3.720;2024-02-14T11:28:13;12.90;99.90
39493;DHT22;25176;51.060;3.720;2024-02-14T11:30:40;13.00;99.90
39493;DHT22;25176;51.060;3.720;2024-02-14T11:35:34;13.50;99.90
39493;DHT22;25176;51.060;3.720;2024-02-14T11:38:00;13.70;99.90
39493;DHT22;25176;51.060;3.720;2024-02-14T11:40:25;13.80;99.90
39493;DHT22;25176;51.060;3.720;2024-02-14T11:42:51;13.90;99.90
39493;DHT22;25176;51.060;3.720;2024-02-14T11:45:16;13.90;99.90
39493;DHT22;25176;51.060;3.720;2024-02-14T11:47:42;14.00;99.90
39493;DHT22;25176;51.060;3.720;2024-02-14T11:50:08;14.10;99.90
39493;DHT22;25176;51.060;3.720;2024-02-14T11:52:35;14.20;99.90
39493;DHT22;25176;51.060;3.720;2024-02-14T11:55:00;14.10;99.90
39493;DHT22;25176;51.060;3.720;2024-02-14T11:57:26;13.90;99.90
39493;DHT22;25176;51.060;3.720;2024-02-14T11:59:52;13.60;99.90
39493;DHT22;25176;51.060;3.720;2024-02-14T12:02:19;13.50;99.90
39493;DHT22;25176;51.060;3.720;2024-02-14T12:04:45;13.60;99.90
39493;DHT22;25176;51.060;3.720;2024-02-14T12:07:11;13.60;99.90
39493;DHT22;25176;51.060;3.720;2024-02-14T12:09:36;13.50;99.90
39493;DHT22;25176;51.060;3.720;2024-02-14T12:12:02;13.40;99.90
39493;DHT22;25176;51.060;3.720;2024-02-14T12:14:28;13.30;99.90
39493;DHT22;25176;51.060;3.720;2024-02-14T12:17:01;13.50;99.90
39493;DHT22;25176;51.060;3.720;2024-02-14T12:19:32;13.40;99.90
39493;DHT22;25176;51.060;3.720;2024-02-14T12:21:59;13.50;99.90
39493;DHT22;25176;51.060;3.720;2024-02-14T12:24:27;13.40;99.90
39493;DHT22;25176;51.060;3.720;2024-02-14T12:26:54;13.50;99.90
39493;DHT22;25176;51.060;3.720;2024-02-14T12:29:19;13.60;99.90
39493;DHT22;25176;51.060;3.720;2024-02-14T12:31:45;13.50;99.90
39493;DHT22;25176;51.060;3.720;2024-02-14T12:34:11;13.50;99.90
39493;DHT22;25176;51.060;3.720;2024-02-14T12:36:36;13.60;99.90
39493;DHT22;25176;51.060;3.720;2024-02-14T12:39:03;13.60;99.90
39493;DHT22;25176;51.060;3.720;2024-02-14T12:41:29;13.60;99.90
39493;DHT22;25176;51.060;3.720;2024-02-14T12:43:55;13.60;99.90
39493;DHT22;25176;51.060;3.720;2024-02-14T12:46:21;13.70;99.90
39493;DHT22;25176;51.060;3.720;2024-02-14T12:48:46;13.70;99.90
39493;DHT22;25176;51.060;3.720;2024-02-14T12:51:13;13.80;99.90
39493;DHT22;25176;51.060;3.720;2024-02-14T12:53:39;13.70;99.90
39493;DHT22;25176;51.060;3.720;2024-02-14T12:56:05;13.70;99.90
39493;DHT22;25176;51.060;3.720;2024-02-14T12:58:31;13.60;99.90
39493;DHT22;25176;51.060;3.720;2024-02-14T13:00:57;13.60;99.90
39493;DHT22;25176;51.060;3.720;2024-02-14T13:03:23;13.60;99.90
39493;DHT22;25176;51.060;3.720;2024-02-14T13:05:48;13.60;99.90
39493;DHT22;25176;51.060;3.720;2024-02-14T13:08:14;13.60;99.90
39493;DHT22;25176;51.060;3.720;2024-02-14T13:10:43;13.60;99.90
39493;DHT22;25176;51.060;3.720;2024-02-14T13:13:09;13.60;99.90
39493;DHT22;25176;51.060;3.720;2024-02-14T13:15:35;13.50;99.90
39493;DHT22;25176;51.060;3.720;2024-02-14T13:18:01;13.50;99.90
39493;DHT22;25176;51.060;3.720;2024-02-14T13:20:28;13.50;99.90
39493;DHT22;25176;51.060;3.720;2024-02-14T13:22:54;13.50;99.90
39493;DHT22;25176;51.060;3.720;2024-02-14T13:25:19;13.50;99.90
39493;DHT22;25176;51.060;3.720;2024-02-14T13:27:45;13.60;99.90
39493;DHT22;25176;51.060;3.720;2024-02-14T13:30:11;13.70;99.90
39493;DHT22;25176;51.060;3.720;2024-02-14T13:32:36;13.70;99.90
39493;DHT22;25176;51.060;3.720;2024-02-14T13:35:05;13.70;99.90
39493;DHT22;25176;51.060;3.720;2024-02-14T13:37:34;13.70;99.90
39493;DHT22;25176;51.060;3.720;2024-02-14T13:40:01;13.60;99.90
39493;DHT22;25176;51.060;3.720;2024-02-14T13:42:29;13.60;99.90
39493;DHT22;25176;51.060;3.720;2024-02-14T13:44:55;13.60;99.90
39493;DHT22;25176;51.060;3.720;2024-02-14T13:47:21;13.70;99.90
39493;DHT22;25176;51.060;3.720;2024-02-14T13:49:48;13.70;99.90
39493;DHT22;25176;51.060;3.720;2024-02-14T13:52:13;13.60;99.90
39493;DHT22;25176;51.060;3.720;2024-02-14T13:54:41;13.60;99.90
39493;DHT22;25176;51.060;3.720;2024-02-14T13:57:06;13.60;99.90
39493;DHT22;25176;51.060;3.720;2024-02-14T13:59:32;13.70;99.90
39493;DHT22;25176;51.060;3.720;2024-02-14T14:01:58;13.70;99.90
39493;DHT22;25176;51.060;3.720;2024-02-14T14:04:23;13.80;99.90
39493;DHT22;25176;51.060;3.720;2024-02-14T14:06:49;13.70;99.90
39493;DHT22;25176;51.060;3.720;2024-02-14T14:09:14;13.70;99.90
39493;DHT22;25176;51.060;3.720;2024-02-14T14:11:40;13.70;99.90
39493;DHT22;25176;51.060;3.720;2024-02-14T14:14:06;13.80;99.90
39493;DHT22;25176;51.060;3.720;2024-02-14T14:16:33;13.80;99.90
39493;DHT22;25176;51.060;3.720;2024-02-14T14:18:59;13.80;99.90
39493;DHT22;25176;51.060;3.720;2024-02-14T14:21:24;13.90;99.90
39493;DHT22;25176;51.060;3.720;2024-02-14T14:23:50;13.90;99.90
39493;DHT22;25176;51.060;3.720;2024-02-14T14:26:15;13.90;99.90
39493;DHT22;25176;51.060;3.720;2024-02-14T14:28:41;13.80;99.90
39493;DHT22;25176;51.060;3.720;2024-02-14T14:31:07;13.90;99.90
39493;DHT22;25176;51.060;3.720;2024-02-14T14:33:35;13.90;99.90
39493;DHT22;25176;51.060;3.720;2024-02-14T14:36:00;13.80;99.90
39493;DHT22;25176;51.060;3.720;2024-02-14T14:38:26;13.90;99.90
39493;DHT22;25176;51.060;3.720;2024-02-14T14:40:52;13.90;99.90
39493;DHT22;25176;51.060;3.720;2024-02-14T14:43:20;13.90;99.90
39493;DHT22;25176;51.060;3.720;2024-02-14T14:45:46;14.00;99.90
39493;DHT22;25176;51.060;3.720;2024-02-14T14:48:12;13.90;99.90
39493;DHT22;25176;51.060;3.720;2024-02-14T14:50:37;13.90;99.90
39493;DHT22;25176;51.060;3.720;2024-02-14T14:53:03;14.00;99.90
39493;DHT22;25176;51.060;3.720;2024-02-14T14:58:26;14.10;99.90
39493;DHT22;25176;51.060;3.720;2024-02-14T15:01:01;14.10;99.90
39493;DHT22;25176;51.060;3.720;2024-02-14T15:03:29;14.20;99.90
39493;DHT22;25176;51.060;3.720;2024-02-14T15:05:54;14.30;99.90
39493;DHT22;25176;51.060;3.720;2024-02-14T15:08:20;14.10;99.90
39493;DHT22;25176;51.060;3.720;2024-02-14T15:10:53;14.20;99.90
39493;DHT22;25176;51.060;3.720;2024-02-14T15:13:23;14.30;99.90
39493;DHT22;25176;51.060;3.720;2024-02-14T15:15:49;14.30;99.90
39493;DHT22;25176;51.060;3.720;2024-02-14T15:18:15;14.40;99.90
39493;DHT22;25176;51.060;3.720;2024-02-14T15:20:40;14.50;99.90
39493;DHT22;25176;51.060;3.720;2024-02-14T15:23:06;14.50;99.90
39493;DHT22;25176;51.060;3.720;2024-02-14T15:25:32;14.40;99.90
39493;DHT22;25176;51.060;3.720;2024-02-14T15:27:58;14.30;99.90